sensor_id;sensor_type;location;lat;lon;timestamp;pressure;altitude;pressure_sealevel;temperature;humidity
51972;BME280;37991;49.662;10.060;2022-08-05T00:01:11;98807.13;;;20.42;63.08
51972;BME280;37991;49.662;10.060;2022-08-05T00:03:37;98807.94;;;20.43;63.41
51972;BME280;37991;49.662;10.060;2022-08-05T00:06:02;98817.13;;;20.40;63.30
51972;BME280;37991;49.662;10.060;2022-08-05T00:08:28;98820.59;;;20.41;63.25
51972;BME280;37991;49.662;10.060;2022-08-05T00:10:53;98820.78;;;20.39;63.31
51972;BME280;37991;49.662;10.060;2022-08-05T00:13:18;98819.56;;;20.42;63.22
51972;BME280;37991;49.662;10.060;2022-08-05T00:15:44;98822.44;;;20.40;63.46
51972;BME280;37991;49.662;10.060;2022-08-05T00:18:09;98823.34;;;20.33;63.64
51972;BME280;37991;49.662;10.060;2022-08-05T00:20:34;98822.69;;;20.31;63.69
51972;BME280;37991;49.662;10.060;2022-08-05T00:23:00;98826.28;;;20.38;63.56
51972;BME280;37991;49.662;10.060;2022-08-05T00:25:25;98823.53;;;20.31;63.91
51972;BME280;37991;49.662;10.060;2022-08-05T00:27:50;98826.38;;;20.30;64.02
51972;BME280;37991;49.662;10.060;2022-08-05T00:30:16;98817.66;;;20.21;64.47
51972;BME280;37991;49.662;10.060;2022-08-05T00:32:41;98816.00;;;20.20;64.40
51972;BME280;37991;49.662;10.060;2022-08-05T00:35:07;98818.84;;;20.18;64.53
51972;BME280;37991;49.662;10.060;2022-08-05T00:37:33;98818.38;;;20.15;64.97
51972;BME280;37991;49.662;10.060;2022-08-05T00:39:58;98809.00;;;20.19;64.72
51972;BME280;37991;49.662;10.060;2022-08-05T00:42:31;98818.84;;;20.18;64.92
51972;BME280;37991;49.662;10.060;2022-08-05T00:44:57;98823.13;;;20.19;64.56
51972;BME280;37991;49.662;10.060;2022-08-05T00:47:22;98825.16;;;20.17;64.84
51972;BME280;37991;49.662;10.060;2022-08-05T00:49:48;98832.44;;;20.24;64.62
51972;BME280;37991;49.662;10.060;2022-08-05T00:52:13;98833.16;;;20.17;65.03
51972;BME280;37991;49.662;10.060;2022-08-05T00:54:38;98820.75;;;20.10;65.27
51972;BME280;37991;49.662;10.060;2022-08-05T00:57:04;98831.66;;;20.15;65.16
51972;BME280;37991;49.662;10.060;2022-08-05T00:59:29;98835.69;;;20.11;65.31
51972;BME280;37991;49.662;10.060;2022-08-05T01:01:54;98831.94;;;20.05;65.67
51972;BME280;37991;49.662;10.060;2022-08-05T01:04:20;98835.69;;;20.11;65.37
51972;BME280;37991;49.662;10.060;2022-08-05T01:06:46;98826.59;;;20.05;65.77
51972;BME280;37991;49.662;10.060;2022-08-05T01:09:12;98828.59;;;20.03;65.66
51972;BME280;37991;49.662;10.060;2022-08-05T01:11:38;98829.81;;;20.01;66.17
51972;BME280;37991;49.662;10.060;2022-08-05T01:14:10;98832.28;;;20.02;65.85
51972;BME280;37991;49.662;10.060;2022-08-05T01:21:55;98827.53;;;20.12;65.56
51972;BME280;37991;49.662;10.060;2022-08-05T01:30:16;98836.78;;;20.16;65.85
51972;BME280;37991;49.662;10.060;2022-08-05T01:32:43;98833.78;;;20.19;65.85
51972;BME280;37991;49.662;10.060;2022-08-05T01:35:14;98835.09;;;20.24;65.98
51972;BME280;37991;49.662;10.060;2022-08-05T01:37:52;98832.44;;;20.24;65.95
51972;BME280;37991;49.662;10.060;2022-08-05T01:40:18;98840.31;;;20.32;65.94
51972;BME280;37991;49.662;10.060;2022-08-05T01:42:46;98880.03;;;20.33;65.71
51972;BME280;37991;49.662;10.060;2022-08-05T01:45:14;98869.19;;;20.35;65.50
51972;BME280;37991;49.662;10.060;2022-08-05T01:47:40;98851.69;;;20.40;65.32
51972;BME280;37991;49.662;10.060;2022-08-05T01:50:11;98888.66;;;20.50;64.68
51972;BME280;37991;49.662;10.060;2022-08-05T01:52:39;98880.75;;;20.65;64.00
51972;BME280;37991;49.662;10.060;2022-08-05T01:55:08;98905.03;;;20.77;63.70
51972;BME280;37991;49.662;10.060;2022-08-05T01:57:38;98904.41;;;20.89;62.52
51972;BME280;37991;49.662;10.060;2022-08-05T02:00:06;98905.88;;;20.92;62.35
51972;BME280;37991;49.662;10.060;2022-08-05T02:02:36;98916.81;;;20.97;62.57
51972;BME280;37991;49.662;10.060;2022-08-05T02:05:06;98913.50;;;20.95;63.07
51972;BME280;37991;49.662;10.060;2022-08-05T02:07:33;98914.50;;;20.94;62.99
51972;BME280;37991;49.662;10.060;2022-08-05T02:09:59;98920.44;;;20.96;62.94
51972;BME280;37991;49.662;10.060;2022-08-05T02:12:59;98921.69;;;20.94;63.07
51972;BME280;37991;49.662;10.060;2022-08-05T02:15:36;98920.28;;;20.98;63.25
51972;BME280;37991;49.662;10.060;2022-08-05T02:18:19;98931.22;;;21.03;62.90
51972;BME280;37991;49.662;10.060;2022-08-05T02:21:01;98927.16;;;21.07;63.59
51972;BME280;37991;49.662;10.060;2022-08-05T02:23:31;98937.63;;;21.08;63.54
51972;BME280;37991;49.662;10.060;2022-08-05T02:25:59;98938.28;;;21.10;63.88
51972;BME280;37991;49.662;10.060;2022-08-05T02:28:28;98933.19;;;21.30;64.26
51972;BME280;37991;49.662;10.060;2022-08-05T02:31:08;98933.41;;;21.29;64.41
51972;BME280;37991;49.662;10.060;2022-08-05T02:33:38;98933.03;;;21.32;64.73
51972;BME280;37991;49.662;10.060;2022-08-05T02:36:08;98932.81;;;21.33;64.74
51972;BME280;37991;49.662;10.060;2022-08-05T02:38:35;98937.88;;;21.43;66.22
51972;BME280;37991;49.662;10.060;2022-08-05T02:41:02;98925.66;;;21.49;65.79
51972;BME280;37991;49.662;10.060;2022-08-05T02:43:31;98920.03;;;21.58;65.85
51972;BME280;37991;49.662;10.060;2022-08-05T02:45:58;98923.16;;;21.62;66.32
51972;BME280;37991;49.662;10.060;2022-08-05T02:48:25;98925.88;;;21.69;66.19
51972;BME280;37991;49.662;10.060;2022-08-05T02:50:53;98927.56;;;21.70;66.05
51972;BME280;37991;49.662;10.060;2022-08-05T02:53:19;98934.91;;;21.68;66.22
51972;BME280;37991;49.662;10.060;2022-08-05T02:55:49;98935.91;;;21.67;66.51
51972;BME280;37991;49.662;10.060;2022-08-05T02:58:15;98940.97;;;21.62;66.65
51972;BME280;37991;49.662;10.060;2022-08-05T03:00:41;98937.66;;;21.59;66.87
51972;BME280;37991;49.662;10.060;2022-08-05T03:03:07;98937.97;;;21.50;67.42
51972;BME280;37991;49.662;10.060;2022-08-05T03:05:33;98949.19;;;21.45;67.82
51972;BME280;37991;49.662;10.060;2022-08-05T03:07:58;98943.22;;;21.43;68.06
51972;BME280;37991;49.662;10.060;2022-08-05T03:10:24;98942.78;;;21.40;68.35
51972;BME280;37991;49.662;10.060;2022-08-05T03:12:49;98944.31;;;21.34;69.02
51972;BME280;37991;49.662;10.060;2022-08-05T03:15:15;98939.34;;;21.31;69.17
51972;BME280;37991;49.662;10.060;2022-08-05T03:17:40;98944.66;;;21.31;69.10
51972;BME280;37991;49.662;10.060;2022-08-05T03:20:06;98939.91;;;21.26;69.59
51972;BME280;37991;49.662;10.060;2022-08-05T03:22:32;98934.75;;;21.25;69.69
51972;BME280;37991;49.662;10.060;2022-08-05T03:24:57;98935.59;;;21.25;69.95
51972;BME280;37991;49.662;10.060;2022-08-05T03:27:23;98921.63;;;21.23;70.02
51972;BME280;37991;49.662;10.060;2022-08-05T03:29:49;98916.03;;;21.18;70.02
51972;BME280;37991;49.662;10.060;2022-08-05T03:32:15;98917.88;;;21.18;70.41
51972;BME280;37991;49.662;10.060;2022-08-05T03:34:42;98922.31;;;21.10;70.83
51972;BME280;37991;49.662;10.060;2022-08-05T03:37:07;98919.34;;;21.05;71.04
51972;BME280;37991;49.662;10.060;2022-08-05T03:39:33;98933.59;;;20.98;71.09
51972;BME280;37991;49.662;10.060;2022-08-05T03:41:58;98919.47;;;20.97;71.61
51972;BME280;37991;49.662;10.060;2022-08-05T03:44:24;98915.69;;;20.92;71.82
51972;BME280;37991;49.662;10.060;2022-08-05T03:46:50;98921.31;;;20.97;71.85
51972;BME280;37991;49.662;10.060;2022-08-05T03:49:16;98929.22;;;20.90;72.15
51972;BME280;37991;49.662;10.060;2022-08-05T03:51:48;98914.22;;;20.89;71.74
51972;BME280;37991;49.662;10.060;2022-08-05T03:54:22;98917.09;;;20.87;72.90
51972;BME280;37991;49.662;10.060;2022-08-05T03:56:50;98925.97;;;20.80;73.33
51972;BME280;37991;49.662;10.060;2022-08-05T04:02:00;98926.16;;;20.78;73.62
51972;BME280;37991;49.662;10.060;2022-08-05T04:04:27;98923.66;;;20.77;73.60
51972;BME280;37991;49.662;10.060;2022-08-05T04:06:53;98924.31;;;20.79;73.38
51972;BME280;37991;49.662;10.060;2022-08-05T04:09:19;98925.88;;;20.73;73.91
51972;BME280;37991;49.662;10.060;2022-08-05T04:11:45;98923.56;;;20.70;74.17
51972;BME280;37991;49.662;10.060;2022-08-05T04:14:10;98935.69;;;20.73;74.28
51972;BME280;37991;49.662;10.060;2022-08-05T04:16:36;98945.31;;;20.74;74.42
51972;BME280;37991;49.662;10.060;2022-08-05T04:19:02;98945.69;;;20.71;74.78
51972;BME280;37991;49.662;10.060;2022-08-05T04:21:28;98950.66;;;20.74;74.72
51972;BME280;37991;49.662;10.060;2022-08-05T04:23:54;98950.38;;;20.69;74.94
51972;BME280;37991;49.662;10.060;2022-08-05T04:26:19;98956.22;;;20.64;75.24
51972;BME280;37991;49.662;10.060;2022-08-05T04:28:44;98954.22;;;20.66;75.30
51972;BME280;37991;49.662;10.060;2022-08-05T04:31:10;98960.22;;;20.68;75.30
51972;BME280;37991;49.662;10.060;2022-08-05T04:33:35;98970.00;;;20.67;75.32
51972;BME280;37991;49.662;10.060;2022-08-05T04:36:01;98979.91;;;20.74;75.41
51972;BME280;37991;49.662;10.060;2022-08-05T04:38:26;98965.78;;;20.73;75.32
51972;BME280;37991;49.662;10.060;2022-08-05T04:40:51;98964.81;;;20.74;75.42
51972;BME280;37991;49.662;10.060;2022-08-05T04:43:17;98969.38;;;20.80;75.51
51972;BME280;37991;49.662;10.060;2022-08-05T04:45:42;98973.25;;;20.78;75.76
51972;BME280;37991;49.662;10.060;2022-08-05T04:48:13;98973.06;;;20.79;75.77
51972;BME280;37991;49.662;10.060;2022-08-05T04:50:45;98991.16;;;20.84;75.81
51972;BME280;37991;49.662;10.060;2022-08-05T04:53:12;99000.78;;;20.85;75.80
51972;BME280;37991;49.662;10.060;2022-08-05T04:55:39;99025.19;;;20.88;75.81
51972;BME280;37991;49.662;10.060;2022-08-05T04:58:08;99062.81;;;20.85;76.84
51972;BME280;37991;49.662;10.060;2022-08-05T05:00:34;99057.81;;;21.05;77.52
51972;BME280;37991;49.662;10.060;2022-08-05T05:03:00;99071.16;;;21.20;77.45
51972;BME280;37991;49.662;10.060;2022-08-05T05:05:27;99081.66;;;21.36;76.62
51972;BME280;37991;49.662;10.060;2022-08-05T05:07:54;99093.16;;;21.52;76.43
51972;BME280;37991;49.662;10.060;2022-08-05T05:10:19;99113.28;;;21.69;75.78
51972;BME280;37991;49.662;10.060;2022-08-05T05:12:45;99104.91;;;21.87;75.67
51972;BME280;37991;49.662;10.060;2022-08-05T05:15:10;99121.59;;;22.11;75.20
51972;BME280;37991;49.662;10.060;2022-08-05T05:17:39;99103.44;;;22.36;74.24
51972;BME280;37991;49.662;10.060;2022-08-05T05:20:06;99097.56;;;22.62;73.16
51972;BME280;37991;49.662;10.060;2022-08-05T05:22:32;99103.88;;;22.75;72.76
51972;BME280;37991;49.662;10.060;2022-08-05T05:24:57;99099.84;;;22.86;72.30
51972;BME280;37991;49.662;10.060;2022-08-05T05:27:22;99103.25;;;22.95;72.14
51972;BME280;37991;49.662;10.060;2022-08-05T05:29:48;99109.84;;;22.99;72.18
51972;BME280;37991;49.662;10.060;2022-08-05T05:32:13;99119.75;;;23.05;72.20
51972;BME280;37991;49.662;10.060;2022-08-05T05:34:38;99124.66;;;23.02;72.17
51972;BME280;37991;49.662;10.060;2022-08-05T05:37:04;99133.88;;;22.99;72.60
51972;BME280;37991;49.662;10.060;2022-08-05T05:41:54;99129.78;;;23.03;72.15
51972;BME280;37991;49.662;10.060;2022-08-05T05:44:19;99138.88;;;23.09;72.26
51972;BME280;37991;49.662;10.060;2022-08-05T05:46:45;99136.28;;;23.15;71.95
51972;BME280;37991;49.662;10.060;2022-08-05T05:49:10;99150.28;;;23.46;69.63
51972;BME280;37991;49.662;10.060;2022-08-05T05:51:35;99152.81;;;23.60;68.06
51972;BME280;37991;49.662;10.060;2022-08-05T05:54:01;99149.03;;;23.76;67.56
51972;BME280;37991;49.662;10.060;2022-08-05T05:56:28;99143.38;;;23.93;66.57
51972;BME280;37991;49.662;10.060;2022-08-05T05:58:54;99151.91;;;24.09;65.08
51972;BME280;37991;49.662;10.060;2022-08-05T06:01:19;99157.44;;;24.08;65.36
51972;BME280;37991;49.662;10.060;2022-08-05T06:03:44;99155.00;;;24.13;65.19
51972;BME280;37991;49.662;10.060;2022-08-05T06:06:10;99161.59;;;24.17;65.18
51972;BME280;37991;49.662;10.060;2022-08-05T06:08:35;99168.59;;;24.18;64.89
51972;BME280;37991;49.662;10.060;2022-08-05T06:11:00;99171.13;;;24.26;63.75
51972;BME280;37991;49.662;10.060;2022-08-05T06:13:26;99167.84;;;24.37;63.48
51972;BME280;37991;49.662;10.060;2022-08-05T06:15:51;99165.03;;;24.46;63.01
51972;BME280;37991;49.662;10.060;2022-08-05T06:18:16;99171.88;;;24.68;62.14
51972;BME280;37991;49.662;10.060;2022-08-05T06:20:42;99188.19;;;24.67;62.26
51972;BME280;37991;49.662;10.060;2022-08-05T06:23:07;99188.38;;;24.78;61.72
51972;BME280;37991;49.662;10.060;2022-08-05T06:25:32;99196.66;;;24.83;61.29
51972;BME280;37991;49.662;10.060;2022-08-05T06:27:58;99204.88;;;24.89;60.85
51972;BME280;37991;49.662;10.060;2022-08-05T06:30:23;99190.25;;;24.91;60.99
51972;BME280;37991;49.662;10.060;2022-08-05T06:32:50;99178.13;;;25.02;60.53
51972;BME280;37991;49.662;10.060;2022-08-05T06:35:16;99188.63;;;25.03;60.08
51972;BME280;37991;49.662;10.060;2022-08-05T06:37:42;99194.88;;;25.44;59.33
51972;BME280;37991;49.662;10.060;2022-08-05T06:40:08;99195.47;;;25.33;60.14
51972;BME280;37991;49.662;10.060;2022-08-05T06:42:33;99205.19;;;25.40;59.27
51972;BME280;37991;49.662;10.060;2022-08-05T06:44:59;99208.28;;;25.57;58.75
51972;BME280;37991;49.662;10.060;2022-08-05T06:47:24;99204.56;;;25.85;57.97
51972;BME280;37991;49.662;10.060;2022-08-05T06:49:49;99201.25;;;25.89;57.56
51972;BME280;37991;49.662;10.060;2022-08-05T06:52:15;99203.03;;;26.09;56.95
51972;BME280;37991;49.662;10.060;2022-08-05T06:54:40;99190.00;;;26.19;56.99
51972;BME280;37991;49.662;10.060;2022-08-05T06:57:05;99183.91;;;26.50;56.71
51972;BME280;37991;49.662;10.060;2022-08-05T06:59:31;99179.72;;;26.61;56.18
51972;BME280;37991;49.662;10.060;2022-08-05T07:01:56;99206.16;;;26.96;54.74
51972;BME280;37991;49.662;10.060;2022-08-05T07:04:21;99203.38;;;27.16;54.71
51972;BME280;37991;49.662;10.060;2022-08-05T07:06:47;99190.84;;;27.28;54.16
51972;BME280;37991;49.662;10.060;2022-08-05T07:09:12;99197.19;;;27.40;53.83
51972;BME280;37991;49.662;10.060;2022-08-05T07:11:37;99193.28;;;27.61;53.54
51972;BME280;37991;49.662;10.060;2022-08-05T07:14:03;99196.38;;;28.01;52.85
51972;BME280;37991;49.662;10.060;2022-08-05T07:16:48;99195.94;;;28.04;52.65
51972;BME280;37991;49.662;10.060;2022-08-05T07:19:17;99204.91;;;28.17;52.51
51972;BME280;37991;49.662;10.060;2022-08-05T07:21:47;99203.03;;;28.36;51.91
51972;BME280;37991;49.662;10.060;2022-08-05T07:24:13;99197.22;;;28.57;51.87
51972;BME280;37991;49.662;10.060;2022-08-05T07:26:39;99189.81;;;28.83;50.76
51972;BME280;37991;49.662;10.060;2022-08-05T07:29:04;99189.44;;;28.79;50.71
51972;BME280;37991;49.662;10.060;2022-08-05T07:31:30;99192.00;;;28.44;51.62
51972;BME280;37991;49.662;10.060;2022-08-05T07:33:55;99181.91;;;28.69;51.21
51972;BME280;37991;49.662;10.060;2022-08-05T07:36:20;99190.78;;;29.00;49.84
51972;BME280;37991;49.662;10.060;2022-08-05T07:38:46;99200.28;;;29.33;49.66
51972;BME280;37991;49.662;10.060;2022-08-05T07:41:16;99199.69;;;29.54;49.34
51972;BME280;37991;49.662;10.060;2022-08-05T07:43:42;99210.03;;;29.93;48.86
51972;BME280;37991;49.662;10.060;2022-08-05T07:46:07;99214.03;;;29.78;49.19
51972;BME280;37991;49.662;10.060;2022-08-05T07:48:32;99224.31;;;29.58;49.22
51972;BME280;37991;49.662;10.060;2022-08-05T07:50:59;99233.31;;;29.16;49.75
51972;BME280;37991;49.662;10.060;2022-08-05T07:53:24;99227.81;;;28.93;50.11
51972;BME280;37991;49.662;10.060;2022-08-05T07:55:50;99218.81;;;29.29;49.69
51972;BME280;37991;49.662;10.060;2022-08-05T07:58:15;99219.00;;;29.28;49.51
51972;BME280;37991;49.662;10.060;2022-08-05T08:00:41;99216.91;;;29.41;49.18
51972;BME280;37991;49.662;10.060;2022-08-05T08:03:11;99231.31;;;29.35;49.15
51972;BME280;37991;49.662;10.060;2022-08-05T08:05:38;99228.03;;;29.22;49.48
51972;BME280;37991;49.662;10.060;2022-08-05T08:08:03;99230.63;;;29.16;49.67
51972;BME280;37991;49.662;10.060;2022-08-05T08:10:29;99224.66;;;29.26;49.70
51972;BME280;37991;49.662;10.060;2022-08-05T08:12:54;99216.91;;;29.41;49.60
51972;BME280;37991;49.662;10.060;2022-08-05T08:15:20;99207.56;;;29.56;49.13
51972;BME280;37991;49.662;10.060;2022-08-05T08:17:45;99210.59;;;29.48;48.74
51972;BME280;37991;49.662;10.060;2022-08-05T08:20:11;99201.63;;;29.12;48.97
51972;BME280;37991;49.662;10.060;2022-08-05T08:22:36;99207.31;;;28.92;49.46
51972;BME280;37991;49.662;10.060;2022-08-05T08:25:02;99211.31;;;28.71;49.85
51972;BME280;37991;49.662;10.060;2022-08-05T08:27:28;99205.28;;;28.57;50.58
51972;BME280;37991;49.662;10.060;2022-08-05T08:29:54;99217.22;;;28.49;50.49
51972;BME280;37991;49.662;10.060;2022-08-05T08:32:19;99211.72;;;28.19;51.30
51972;BME280;37991;49.662;10.060;2022-08-05T08:34:45;99217.56;;;28.16;51.44
51972;BME280;37991;49.662;10.060;2022-08-05T08:37:10;99219.16;;;28.05;51.70
51972;BME280;37991;49.662;10.060;2022-08-05T08:39:35;99220.63;;;28.01;51.93
51972;BME280;37991;49.662;10.060;2022-08-05T08:42:01;99204.94;;;27.98;51.87
51972;BME280;37991;49.662;10.060;2022-08-05T08:44:29;99202.38;;;27.85;52.31
51972;BME280;37991;49.662;10.060;2022-08-05T08:46:55;99212.66;;;27.70;52.52
51972;BME280;37991;49.662;10.060;2022-08-05T08:49:22;99220.13;;;27.68;52.82
51972;BME280;37991;49.662;10.060;2022-08-05T08:52:05;99217.56;;;27.54;53.18
51972;BME280;37991;49.662;10.060;2022-08-05T08:54:32;99218.81;;;27.27;53.64
51972;BME280;37991;49.662;10.060;2022-08-05T08:56:58;99223.72;;;26.98;54.33
51972;BME280;37991;49.662;10.060;2022-08-05T08:59:24;99216.44;;;27.05;54.22
51972;BME280;37991;49.662;10.060;2022-08-05T09:01:50;99216.31;;;27.50;53.57
51972;BME280;37991;49.662;10.060;2022-08-05T09:04:16;99207.56;;;28.05;52.45
51972;BME280;37991;49.662;10.060;2022-08-05T09:06:41;99215.47;;;28.55;50.53
51972;BME280;37991;49.662;10.060;2022-08-05T09:09:07;99212.84;;;28.48;48.20
51972;BME280;37991;49.662;10.060;2022-08-05T09:11:33;99219.81;;;28.56;47.88
51972;BME280;37991;49.662;10.060;2022-08-05T09:13:59;99212.75;;;28.73;46.91
51972;BME280;37991;49.662;10.060;2022-08-05T09:16:25;99228.63;;;28.93;45.65
51972;BME280;37991;49.662;10.060;2022-08-05T09:18:51;99218.16;;;29.15;45.59
51972;BME280;37991;49.662;10.060;2022-08-05T09:21:17;99217.75;;;29.42;45.55
51972;BME280;37991;49.662;10.060;2022-08-05T09:23:44;99210.22;;;29.44;45.00
51972;BME280;37991;49.662;10.060;2022-08-05T09:26:12;99209.56;;;29.72;44.62
51972;BME280;37991;49.662;10.060;2022-08-05T09:28:40;99199.72;;;29.78;45.20
51972;BME280;37991;49.662;10.060;2022-08-05T09:31:11;99189.94;;;30.00;44.56
51972;BME280;37991;49.662;10.060;2022-08-05T09:33:52;99188.16;;;30.18;45.19
51972;BME280;37991;49.662;10.060;2022-08-05T09:36:18;99184.44;;;29.95;44.49
51972;BME280;37991;49.662;10.060;2022-08-05T09:38:56;99185.25;;;29.96;45.43
51972;BME280;37991;49.662;10.060;2022-08-05T09:41:22;99181.59;;;30.02;45.60
51972;BME280;37991;49.662;10.060;2022-08-05T09:43:47;99172.75;;;30.18;44.79
51972;BME280;37991;49.662;10.060;2022-08-05T09:46:28;99176.19;;;30.02;45.45
51972;BME280;37991;49.662;10.060;2022-08-05T09:48:55;99177.38;;;30.06;45.45
51972;BME280;37991;49.662;10.060;2022-08-05T09:51:37;99185.00;;;30.09;45.02
51972;BME280;37991;49.662;10.060;2022-08-05T09:54:04;99189.22;;;30.28;45.07
51972;BME280;37991;49.662;10.060;2022-08-05T09:56:34;99179.03;;;30.07;45.13
51972;BME280;37991;49.662;10.060;2022-08-05T09:59:03;99172.41;;;30.15;44.92
51972;BME280;37991;49.662;10.060;2022-08-05T10:01:29;99162.22;;;30.05;45.29
51972;BME280;37991;49.662;10.060;2022-08-05T10:04:06;99137.72;;;29.95;45.30
51972;BME280;37991;49.662;10.060;2022-08-05T10:06:33;99123.38;;;30.06;45.98
51972;BME280;37991;49.662;10.060;2022-08-05T10:09:18;99122.19;;;30.02;45.18
51972;BME280;37991;49.662;10.060;2022-08-05T10:11:46;99111.47;;;30.19;46.01
51972;BME280;37991;49.662;10.060;2022-08-05T10:14:21;99122.69;;;30.39;45.29
51972;BME280;37991;49.662;10.060;2022-08-05T10:16:48;99116.97;;;30.35;44.40
51972;BME280;37991;49.662;10.060;2022-08-05T10:19:15;99126.13;;;30.34;44.72
51972;BME280;37991;49.662;10.060;2022-08-05T10:21:41;99121.25;;;30.08;44.94
51972;BME280;37991;49.662;10.060;2022-08-05T10:24:07;99109.44;;;29.85;46.67
51972;BME280;37991;49.662;10.060;2022-08-05T10:26:34;99094.72;;;29.64;47.22
51972;BME280;37991;49.662;10.060;2022-08-05T10:29:00;99088.50;;;29.40;46.21
51972;BME280;37991;49.662;10.060;2022-08-05T10:31:26;99098.56;;;29.45;46.83
51972;BME280;37991;49.662;10.060;2022-08-05T10:33:52;99105.63;;;29.46;46.69
51972;BME280;37991;49.662;10.060;2022-08-05T10:36:17;99106.91;;;29.67;46.13
51972;BME280;37991;49.662;10.060;2022-08-05T10:38:45;99104.34;;;29.60;45.25
51972;BME280;37991;49.662;10.060;2022-08-05T10:41:32;99096.88;;;29.91;45.40
51972;BME280;37991;49.662;10.060;2022-08-05T10:44:04;99103.22;;;29.97;45.19
51972;BME280;37991;49.662;10.060;2022-08-05T10:46:46;99101.66;;;30.01;45.51
51972;BME280;37991;49.662;10.060;2022-08-05T10:49:12;99099.84;;;30.18;44.38
51972;BME280;37991;49.662;10.060;2022-08-05T10:51:56;99105.56;;;30.33;44.50
51972;BME280;37991;49.662;10.060;2022-08-05T10:54:47;99102.00;;;30.45;43.94
51972;BME280;37991;49.662;10.060;2022-08-05T10:57:24;99107.88;;;30.42;42.50
51972;BME280;37991;49.662;10.060;2022-08-05T11:00:06;99104.94;;;30.43;42.74
51972;BME280;37991;49.662;10.060;2022-08-05T11:02:31;99105.47;;;30.57;42.63
51972;BME280;37991;49.662;10.060;2022-08-05T11:04:57;99103.91;;;30.61;41.31
51972;BME280;37991;49.662;10.060;2022-08-05T11:07:23;99112.19;;;30.71;41.78
51972;BME280;37991;49.662;10.060;2022-08-05T11:09:50;99119.06;;;30.62;41.10
51972;BME280;37991;49.662;10.060;2022-08-05T11:15:05;99120.88;;;30.73;40.65
51972;BME280;37991;49.662;10.060;2022-08-05T11:17:35;99131.66;;;31.02;39.56
51972;BME280;37991;49.662;10.060;2022-08-05T11:20:06;99123.53;;;30.85;40.18
51972;BME280;37991;49.662;10.060;2022-08-05T11:25:32;99134.28;;;30.97;39.66
51972;BME280;37991;49.662;10.060;2022-08-05T11:33:27;99129.03;;;31.07;39.14
51972;BME280;37991;49.662;10.060;2022-08-05T11:35:58;99130.59;;;31.03;38.98
51972;BME280;37991;49.662;10.060;2022-08-05T11:43:50;99137.31;;;30.72;40.02
51972;BME280;37991;49.662;10.060;2022-08-05T11:46:17;99141.25;;;30.93;39.67
51972;BME280;37991;49.662;10.060;2022-08-05T11:48:49;99129.78;;;30.86;39.95
51972;BME280;37991;49.662;10.060;2022-08-05T11:51:14;99135.41;;;30.84;39.79
51972;BME280;37991;49.662;10.060;2022-08-05T11:53:40;99143.94;;;30.93;39.37
51972;BME280;37991;49.662;10.060;2022-08-05T11:56:06;99149.03;;;31.06;38.30
51972;BME280;37991;49.662;10.060;2022-08-05T12:01:05;99154.75;;;31.10;38.46
51972;BME280;37991;49.662;10.060;2022-08-05T12:03:53;99154.19;;;31.08;38.83
51972;BME280;37991;49.662;10.060;2022-08-05T12:06:24;99143.47;;;30.96;38.98
51972;BME280;37991;49.662;10.060;2022-08-05T12:08:58;99145.00;;;30.92;39.12
51972;BME280;37991;49.662;10.060;2022-08-05T12:11:25;99139.69;;;30.80;40.01
51972;BME280;37991;49.662;10.060;2022-08-05T12:13:56;99139.41;;;30.81;40.12
51972;BME280;37991;49.662;10.060;2022-08-05T12:16:23;99151.56;;;30.96;40.39
51972;BME280;37991;49.662;10.060;2022-08-05T12:18:49;99143.31;;;30.74;40.30
51972;BME280;37991;49.662;10.060;2022-08-05T12:21:20;99137.59;;;30.70;40.76
51972;BME280;37991;49.662;10.060;2022-08-05T12:26:23;99130.34;;;30.59;40.89
51972;BME280;37991;49.662;10.060;2022-08-05T12:28:49;99137.03;;;30.56;41.58
51972;BME280;37991;49.662;10.060;2022-08-05T12:31:14;99127.47;;;30.77;41.29
51972;BME280;37991;49.662;10.060;2022-08-05T12:33:41;99129.22;;;30.72;41.75
51972;BME280;37991;49.662;10.060;2022-08-05T12:36:08;99142.06;;;30.93;41.24
51972;BME280;37991;49.662;10.060;2022-08-05T12:38:35;99136.38;;;30.78;41.40
51972;BME280;37991;49.662;10.060;2022-08-05T12:41:01;99141.25;;;30.64;41.05
51972;BME280;37991;49.662;10.060;2022-08-05T12:43:26;99141.63;;;30.56;41.20
51972;BME280;37991;49.662;10.060;2022-08-05T12:45:55;99150.56;;;30.56;41.19
51972;BME280;37991;49.662;10.060;2022-08-05T12:48:23;99145.13;;;30.40;41.38
51972;BME280;37991;49.662;10.060;2022-08-05T12:51:08;99145.41;;;30.26;41.38
51972;BME280;37991;49.662;10.060;2022-08-05T12:53:39;99152.47;;;30.16;41.55
51972;BME280;37991;49.662;10.060;2022-08-05T12:56:16;99158.69;;;30.16;41.72
51972;BME280;37991;49.662;10.060;2022-08-05T12:58:41;99158.72;;;30.04;41.96
51972;BME280;37991;49.662;10.060;2022-08-05T13:01:07;99161.75;;;30.08;41.62
51972;BME280;37991;49.662;10.060;2022-08-05T13:03:36;99166.13;;;29.97;42.18
51972;BME280;37991;49.662;10.060;2022-08-05T13:06:06;99164.47;;;29.96;41.97
51972;BME280;37991;49.662;10.060;2022-08-05T13:08:32;99159.31;;;29.95;42.22
51972;BME280;37991;49.662;10.060;2022-08-05T13:11:00;99163.63;;;30.07;41.69
51972;BME280;37991;49.662;10.060;2022-08-05T13:13:26;99169.75;;;30.03;42.15
51972;BME280;37991;49.662;10.060;2022-08-05T13:15:53;99162.34;;;29.98;41.77
51972;BME280;37991;49.662;10.060;2022-08-05T13:18:18;99157.16;;;30.08;42.59
51972;BME280;37991;49.662;10.060;2022-08-05T13:20:44;99162.81;;;30.07;42.11
51972;BME280;37991;49.662;10.060;2022-08-05T13:23:10;99166.47;;;30.01;42.49
51972;BME280;37991;49.662;10.060;2022-08-05T13:25:35;99158.38;;;29.89;42.63
51972;BME280;37991;49.662;10.060;2022-08-05T13:28:01;99162.50;;;29.80;42.54
51972;BME280;37991;49.662;10.060;2022-08-05T13:30:28;99161.47;;;29.81;42.52